sensor_id;sensor_type;location;lat;lon;timestamp;P1;durP1;ratioP1;P2;durP2;ratioP2
4363;SDS011;15337;48.202;12.770;2022-10-22T00:01:01;55.33;;;32.30;;
4363;SDS011;15337;48.202;12.770;2022-10-22T00:03:29;50.57;;;28.33;;
4363;SDS011;15337;48.202;12.770;2022-10-22T00:05:57;45.83;;;30.13;;
4363;SDS011;15337;48.202;12.770;2022-10-22T00:08:24;45.27;;;29.53;;
4363;SDS011;15337;48.202;12.770;2022-10-22T00:10:51;44.97;;;28.23;;
4363;SDS011;15337;48.202;12.770;2022-10-22T00:13:19;43.87;;;28.93;;
4363;SDS011;15337;48.202;12.770;2022-10-22T00:15:46;48.20;;;29.10;;
4363;SDS011;15337;48.202;12.770;2022-10-22T00:18:13;51.37;;;29.70;;
4363;SDS011;15337;48.202;12.770;2022-10-22T00:20:40;52.63;;;29.10;;
4363;SDS011;15337;48.202;12.770;2022-10-22T00:23:08;44.13;;;28.80;;
4363;SDS011;15337;48.202;12.770;2022-10-22T00:25:35;38.80;;;25.73;;
4363;SDS011;15337;48.202;12.770;2022-10-22T00:28:02;38.63;;;25.93;;
4363;SDS011;15337;48.202;12.770;2022-10-22T00:30:29;38.27;;;27.03;;
4363;SDS011;15337;48.202;12.770;2022-10-22T00:32:56;44.87;;;28.00;;
4363;SDS011;15337;48.202;12.770;2022-10-22T00:35:23;41.43;;;27.13;;
4363;SDS011;15337;48.202;12.770;2022-10-22T00:37:50;36.87;;;24.80;;
4363;SDS011;15337;48.202;12.770;2022-10-22T00:40:18;45.97;;;26.90;;
4363;SDS011;15337;48.202;12.770;2022-10-22T00:42:45;47.40;;;26.70;;
4363;SDS011;15337;48.202;12.770;2022-10-22T00:45:20;43.90;;;26.33;;
4363;SDS011;15337;48.202;12.770;2022-10-22T00:47:50;40.03;;;25.27;;
4363;SDS011;15337;48.202;12.770;2022-10-22T00:50:21;35.70;;;25.83;;
4363;SDS011;15337;48.202;12.770;2022-10-22T00:52:51;35.23;;;25.03;;
4363;SDS011;15337;48.202;12.770;2022-10-22T00:55:21;38.37;;;26.17;;
4363;SDS011;15337;48.202;12.770;2022-10-22T00:57:49;38.20;;;25.20;;
4363;SDS011;15337;48.202;12.770;2022-10-22T01:00:17;33.97;;;25.77;;
4363;SDS011;15337;48.202;12.770;2022-10-22T01:02:44;45.87;;;31.80;;
4363;SDS011;15337;48.202;12.770;2022-10-22T01:05:13;40.83;;;27.87;;
4363;SDS011;15337;48.202;12.770;2022-10-22T01:07:41;42.30;;;28.10;;
4363;SDS011;15337;48.202;12.770;2022-10-22T01:10:12;38.00;;;25.13;;
4363;SDS011;15337;48.202;12.770;2022-10-22T01:12:48;38.80;;;27.10;;
4363;SDS011;15337;48.202;12.770;2022-10-22T01:15:27;42.70;;;25.83;;
4363;SDS011;15337;48.202;12.770;2022-10-22T01:18:04;34.27;;;26.33;;
4363;SDS011;15337;48.202;12.770;2022-10-22T01:20:45;44.67;;;28.90;;
4363;SDS011;15337;48.202;12.770;2022-10-22T01:23:32;49.83;;;28.20;;
4363;SDS011;15337;48.202;12.770;2022-10-22T01:26:19;42.97;;;27.60;;
4363;SDS011;15337;48.202;12.770;2022-10-22T01:28:55;44.97;;;27.00;;
4363;SDS011;15337;48.202;12.770;2022-10-22T01:31:28;41.23;;;27.90;;
4363;SDS011;15337;48.202;12.770;2022-10-22T01:33:58;48.27;;;29.10;;
4363;SDS011;15337;48.202;12.770;2022-10-22T01:36:26;44.87;;;28.93;;
4363;SDS011;15337;48.202;12.770;2022-10-22T01:38:56;53.57;;;27.20;;
4363;SDS011;15337;48.202;12.770;2022-10-22T01:41:26;52.80;;;29.57;;
4363;SDS011;15337;48.202;12.770;2022-10-22T01:43:55;45.93;;;29.70;;
4363;SDS011;15337;48.202;12.770;2022-10-22T01:46:22;45.60;;;30.20;;
4363;SDS011;15337;48.202;12.770;2022-10-22T01:48:55;51.50;;;30.40;;
4363;SDS011;15337;48.202;12.770;2022-10-22T01:51:37;46.73;;;29.27;;
4363;SDS011;15337;48.202;12.770;2022-10-22T01:54:18;47.67;;;28.97;;
4363;SDS011;15337;48.202;12.770;2022-10-22T01:56:53;40.50;;;28.17;;
4363;SDS011;15337;48.202;12.770;2022-10-22T01:59:34;46.30;;;31.77;;
4363;SDS011;15337;48.202;12.770;2022-10-22T02:02:09;43.30;;;27.60;;
4363;SDS011;15337;48.202;12.770;2022-10-22T02:04:43;36.50;;;26.77;;
4363;SDS011;15337;48.202;12.770;2022-10-22T02:07:17;39.33;;;25.93;;
4363;SDS011;15337;48.202;12.770;2022-10-22T02:09:48;57.37;;;31.10;;
4363;SDS011;15337;48.202;12.770;2022-10-22T02:12:17;41.60;;;29.13;;
4363;SDS011;15337;48.202;12.770;2022-10-22T02:14:47;46.50;;;30.70;;
4363;SDS011;15337;48.202;12.770;2022-10-22T02:17:17;40.53;;;27.37;;
4363;SDS011;15337;48.202;12.770;2022-10-22T02:19:47;39.63;;;26.93;;
4363;SDS011;15337;48.202;12.770;2022-10-22T02:22:18;48.00;;;31.20;;
4363;SDS011;15337;48.202;12.770;2022-10-22T02:24:46;43.07;;;27.83;;
4363;SDS011;15337;48.202;12.770;2022-10-22T02:27:17;48.23;;;27.67;;
4363;SDS011;15337;48.202;12.770;2022-10-22T02:29:51;45.83;;;28.30;;
4363;SDS011;15337;48.202;12.770;2022-10-22T02:32:25;43.57;;;26.67;;
4363;SDS011;15337;48.202;12.770;2022-10-22T02:34:56;44.57;;;27.47;;
4363;SDS011;15337;48.202;12.770;2022-10-22T02:37:25;47.20;;;28.40;;
4363;SDS011;15337;48.202;12.770;2022-10-22T02:39:53;40.53;;;27.53;;
4363;SDS011;15337;48.202;12.770;2022-10-22T02:42:22;41.10;;;27.53;;
4363;SDS011;15337;48.202;12.770;2022-10-22T02:44:51;45.27;;;28.87;;
4363;SDS011;15337;48.202;12.770;2022-10-22T02:47:18;47.40;;;30.00;;
4363;SDS011;15337;48.202;12.770;2022-10-22T02:49:45;51.10;;;29.00;;
4363;SDS011;15337;48.202;12.770;2022-10-22T02:52:12;46.77;;;26.83;;
4363;SDS011;15337;48.202;12.770;2022-10-22T02:54:39;45.33;;;26.93;;
4363;SDS011;15337;48.202;12.770;2022-10-22T02:57:06;45.20;;;27.30;;
4363;SDS011;15337;48.202;12.770;2022-10-22T02:59:33;39.43;;;27.47;;
4363;SDS011;15337;48.202;12.770;2022-10-22T03:02:01;48.10;;;28.57;;
4363;SDS011;15337;48.202;12.770;2022-10-22T03:04:28;41.40;;;28.80;;
4363;SDS011;15337;48.202;12.770;2022-10-22T03:06:55;41.30;;;29.17;;
4363;SDS011;15337;48.202;12.770;2022-10-22T03:09:22;46.83;;;28.53;;
4363;SDS011;15337;48.202;12.770;2022-10-22T03:11:49;48.23;;;28.43;;
4363;SDS011;15337;48.202;12.770;2022-10-22T03:14:15;47.33;;;30.17;;
4363;SDS011;15337;48.202;12.770;2022-10-22T03:16:42;47.90;;;26.70;;
4363;SDS011;15337;48.202;12.770;2022-10-22T03:19:11;56.80;;;29.73;;
4363;SDS011;15337;48.202;12.770;2022-10-22T03:21:38;47.90;;;30.03;;
4363;SDS011;15337;48.202;12.770;2022-10-22T03:24:08;43.03;;;28.53;;
4363;SDS011;15337;48.202;12.770;2022-10-22T03:26:40;48.57;;;28.50;;
4363;SDS011;15337;48.202;12.770;2022-10-22T03:29:08;56.43;;;31.90;;
4363;SDS011;15337;48.202;12.770;2022-10-22T03:31:36;56.97;;;29.47;;
4363;SDS011;15337;48.202;12.770;2022-10-22T03:34:03;54.37;;;32.03;;
4363;SDS011;15337;48.202;12.770;2022-10-22T03:36:32;62.97;;;32.83;;
4363;SDS011;15337;48.202;12.770;2022-10-22T03:38:59;47.63;;;29.20;;
4363;SDS011;15337;48.202;12.770;2022-10-22T03:41:27;57.53;;;29.33;;
4363;SDS011;15337;48.202;12.770;2022-10-22T03:43:54;54.10;;;28.23;;
4363;SDS011;15337;48.202;12.770;2022-10-22T03:46:21;51.73;;;28.27;;
4363;SDS011;15337;48.202;12.770;2022-10-22T03:48:48;49.70;;;28.63;;
4363;SDS011;15337;48.202;12.770;2022-10-22T03:51:15;35.30;;;23.50;;
4363;SDS011;15337;48.202;12.770;2022-10-22T03:53:43;35.13;;;23.77;;
4363;SDS011;15337;48.202;12.770;2022-10-22T03:56:11;46.33;;;25.60;;
4363;SDS011;15337;48.202;12.770;2022-10-22T03:58:39;38.77;;;23.50;;
4363;SDS011;15337;48.202;12.770;2022-10-22T04:01:06;41.80;;;24.53;;
4363;SDS011;15337;48.202;12.770;2022-10-22T04:03:35;51.00;;;23.87;;
4363;SDS011;15337;48.202;12.770;2022-10-22T04:06:02;49.53;;;24.40;;
4363;SDS011;15337;48.202;12.770;2022-10-22T04:08:31;39.60;;;24.00;;
4363;SDS011;15337;48.202;12.770;2022-10-22T04:11:00;37.23;;;22.63;;
4363;SDS011;15337;48.202;12.770;2022-10-22T04:13:26;38.83;;;23.30;;
4363;SDS011;15337;48.202;12.770;2022-10-22T04:15:53;36.50;;;22.73;;
4363;SDS011;15337;48.202;12.770;2022-10-22T04:18:21;58.40;;;25.17;;
4363;SDS011;15337;48.202;12.770;2022-10-22T04:20:50;51.50;;;25.63;;
4363;SDS011;15337;48.202;12.770;2022-10-22T04:23:17;48.80;;;23.10;;
4363;SDS011;15337;48.202;12.770;2022-10-22T04:25:44;51.20;;;25.40;;
4363;SDS011;15337;48.202;12.770;2022-10-22T04:28:12;39.13;;;21.90;;
4363;SDS011;15337;48.202;12.770;2022-10-22T04:30:39;36.63;;;23.60;;
4363;SDS011;15337;48.202;12.770;2022-10-22T04:33:06;26.80;;;19.40;;
4363;SDS011;15337;48.202;12.770;2022-10-22T04:35:36;30.60;;;20.63;;
4363;SDS011;15337;48.202;12.770;2022-10-22T04:38:04;25.07;;;19.73;;
4363;SDS011;15337;48.202;12.770;2022-10-22T04:40:31;34.40;;;22.23;;
4363;SDS011;15337;48.202;12.770;2022-10-22T04:42:57;53.40;;;24.90;;
4363;SDS011;15337;48.202;12.770;2022-10-22T04:45:26;42.23;;;23.70;;
4363;SDS011;15337;48.202;12.770;2022-10-22T04:47:53;36.10;;;21.77;;
4363;SDS011;15337;48.202;12.770;2022-10-22T04:50:19;47.50;;;24.60;;
4363;SDS011;15337;48.202;12.770;2022-10-22T04:52:46;37.10;;;22.70;;
4363;SDS011;15337;48.202;12.770;2022-10-22T04:55:13;48.23;;;24.40;;
4363;SDS011;15337;48.202;12.770;2022-10-22T04:57:40;31.90;;;22.87;;
4363;SDS011;15337;48.202;12.770;2022-10-22T05:00:07;32.07;;;21.70;;
4363;SDS011;15337;48.202;12.770;2022-10-22T05:02:36;44.50;;;22.60;;
4363;SDS011;15337;48.202;12.770;2022-10-22T05:05:03;36.50;;;22.03;;
4363;SDS011;15337;48.202;12.770;2022-10-22T05:07:30;46.97;;;21.50;;
4363;SDS011;15337;48.202;12.770;2022-10-22T05:09:57;37.37;;;23.33;;
4363;SDS011;15337;48.202;12.770;2022-10-22T05:12:26;37.33;;;22.77;;
4363;SDS011;15337;48.202;12.770;2022-10-22T05:14:53;80.07;;;29.00;;
4363;SDS011;15337;48.202;12.770;2022-10-22T05:17:20;50.77;;;24.90;;
4363;SDS011;15337;48.202;12.770;2022-10-22T05:19:48;49.97;;;23.73;;
4363;SDS011;15337;48.202;12.770;2022-10-22T05:22:15;29.50;;;19.10;;
4363;SDS011;15337;48.202;12.770;2022-10-22T05:24:42;33.17;;;18.80;;
4363;SDS011;15337;48.202;12.770;2022-10-22T05:27:09;11.00;;;9.30;;
4363;SDS011;15337;48.202;12.770;2022-10-22T05:29:36;9.53;;;8.00;;
4363;SDS011;15337;48.202;12.770;2022-10-22T05:32:03;10.53;;;6.80;;
4363;SDS011;15337;48.202;12.770;2022-10-22T05:34:30;6.67;;;6.10;;
4363;SDS011;15337;48.202;12.770;2022-10-22T05:36:58;6.30;;;5.80;;
4363;SDS011;15337;48.202;12.770;2022-10-22T05:39:25;4.70;;;4.40;;
4363;SDS011;15337;48.202;12.770;2022-10-22T05:41:52;8.27;;;5.10;;
4363;SDS011;15337;48.202;12.770;2022-10-22T05:44:19;6.10;;;5.20;;
4363;SDS011;15337;48.202;12.770;2022-10-22T05:46:46;6.37;;;3.80;;
4363;SDS011;15337;48.202;12.770;2022-10-22T05:49:13;4.30;;;3.90;;
4363;SDS011;15337;48.202;12.770;2022-10-22T05:51:41;4.93;;;4.53;;
4363;SDS011;15337;48.202;12.770;2022-10-22T05:54:10;6.20;;;5.23;;
4363;SDS011;15337;48.202;12.770;2022-10-22T05:56:42;6.00;;;4.57;;
4363;SDS011;15337;48.202;12.770;2022-10-22T05:59:09;6.17;;;5.40;;
4363;SDS011;15337;48.202;12.770;2022-10-22T06:01:37;6.40;;;4.47;;
4363;SDS011;15337;48.202;12.770;2022-10-22T06:04:06;4.37;;;4.03;;
4363;SDS011;15337;48.202;12.770;2022-10-22T06:06:36;4.00;;;3.80;;
4363;SDS011;15337;48.202;12.770;2022-10-22T06:09:05;6.10;;;3.50;;
4363;SDS011;15337;48.202;12.770;2022-10-22T06:11:39;3.50;;;3.30;;
4363;SDS011;15337;48.202;12.770;2022-10-22T06:14:06;6.37;;;3.90;;
4363;SDS011;15337;48.202;12.770;2022-10-22T06:16:34;2.80;;;2.60;;
4363;SDS011;15337;48.202;12.770;2022-10-22T06:19:01;3.57;;;3.37;;
4363;SDS011;15337;48.202;12.770;2022-10-22T06:21:28;6.13;;;3.53;;
4363;SDS011;15337;48.202;12.770;2022-10-22T06:23:55;4.33;;;3.30;;
4363;SDS011;15337;48.202;12.770;2022-10-22T06:26:23;11.70;;;2.70;;
4363;SDS011;15337;48.202;12.770;2022-10-22T06:28:51;3.70;;;2.63;;
4363;SDS011;15337;48.202;12.770;2022-10-22T06:31:18;4.23;;;2.60;;
4363;SDS011;15337;48.202;12.770;2022-10-22T06:33:45;2.77;;;2.53;;
4363;SDS011;15337;48.202;12.770;2022-10-22T06:36:13;2.70;;;2.50;;
4363;SDS011;15337;48.202;12.770;2022-10-22T06:38:41;6.17;;;3.27;;
4363;SDS011;15337;48.202;12.770;2022-10-22T06:41:10;4.57;;;2.73;;
4363;SDS011;15337;48.202;12.770;2022-10-22T06:43:38;2.97;;;2.77;;
4363;SDS011;15337;48.202;12.770;2022-10-22T06:46:07;2.77;;;2.30;;
4363;SDS011;15337;48.202;12.770;2022-10-22T06:48:35;2.53;;;2.30;;
4363;SDS011;15337;48.202;12.770;2022-10-22T06:51:03;3.00;;;2.60;;
4363;SDS011;15337;48.202;12.770;2022-10-22T06:53:31;3.00;;;2.80;;
4363;SDS011;15337;48.202;12.770;2022-10-22T06:56:03;3.20;;;3.00;;
4363;SDS011;15337;48.202;12.770;2022-10-22T06:58:30;4.23;;;2.80;;
4363;SDS011;15337;48.202;12.770;2022-10-22T07:01:00;5.13;;;4.10;;
4363;SDS011;15337;48.202;12.770;2022-10-22T07:03:29;4.10;;;3.70;;
4363;SDS011;15337;48.202;12.770;2022-10-22T07:05:58;5.80;;;3.83;;
4363;SDS011;15337;48.202;12.770;2022-10-22T07:08:26;5.23;;;4.83;;
4363;SDS011;15337;48.202;12.770;2022-10-22T07:10:52;7.27;;;5.10;;
4363;SDS011;15337;48.202;12.770;2022-10-22T07:13:20;4.40;;;4.00;;
4363;SDS011;15337;48.202;12.770;2022-10-22T07:15:50;4.47;;;2.93;;
4363;SDS011;15337;48.202;12.770;2022-10-22T07:18:18;2.40;;;2.23;;
4363;SDS011;15337;48.202;12.770;2022-10-22T07:20:47;2.43;;;2.23;;
4363;SDS011;15337;48.202;12.770;2022-10-22T07:23:14;3.07;;;2.53;;
4363;SDS011;15337;48.202;12.770;2022-10-22T07:25:41;3.80;;;2.40;;
4363;SDS011;15337;48.202;12.770;2022-10-22T07:28:08;3.90;;;2.37;;
4363;SDS011;15337;48.202;12.770;2022-10-22T07:30:36;2.83;;;2.23;;
4363;SDS011;15337;48.202;12.770;2022-10-22T07:33:04;3.23;;;2.23;;
4363;SDS011;15337;48.202;12.770;2022-10-22T07:35:31;3.00;;;2.57;;
4363;SDS011;15337;48.202;12.770;2022-10-22T07:38:00;3.50;;;3.30;;
4363;SDS011;15337;48.202;12.770;2022-10-22T07:40:27;3.20;;;2.90;;
4363;SDS011;15337;48.202;12.770;2022-10-22T07:42:54;3.00;;;2.80;;
4363;SDS011;15337;48.202;12.770;2022-10-22T07:45:20;3.40;;;3.20;;
4363;SDS011;15337;48.202;12.770;2022-10-22T07:47:47;2.50;;;2.30;;
4363;SDS011;15337;48.202;12.770;2022-10-22T07:50:15;2.80;;;2.60;;
4363;SDS011;15337;48.202;12.770;2022-10-22T07:52:42;3.00;;;2.80;;
4363;SDS011;15337;48.202;12.770;2022-10-22T07:55:10;2.60;;;2.40;;
4363;SDS011;15337;48.202;12.770;2022-10-22T07:57:38;4.97;;;4.47;;
4363;SDS011;15337;48.202;12.770;2022-10-22T08:00:05;3.50;;;3.30;;
4363;SDS011;15337;48.202;12.770;2022-10-22T08:02:33;3.90;;;2.93;;
4363;SDS011;15337;48.202;12.770;2022-10-22T08:05:00;3.57;;;3.27;;
4363;SDS011;15337;48.202;12.770;2022-10-22T08:07:27;4.77;;;4.27;;
4363;SDS011;15337;48.202;12.770;2022-10-22T08:09:54;7.00;;;5.13;;
4363;SDS011;15337;48.202;12.770;2022-10-22T08:12:22;5.80;;;4.63;;
4363;SDS011;15337;48.202;12.770;2022-10-22T08:14:49;5.47;;;5.03;;
4363;SDS011;15337;48.202;12.770;2022-10-22T08:17:16;4.60;;;4.07;;
4363;SDS011;15337;48.202;12.770;2022-10-22T08:19:43;6.40;;;3.47;;
4363;SDS011;15337;48.202;12.770;2022-10-22T08:22:10;4.00;;;2.93;;
4363;SDS011;15337;48.202;12.770;2022-10-22T08:24:37;3.00;;;2.80;;
4363;SDS011;15337;48.202;12.770;2022-10-22T08:27:04;4.13;;;3.83;;
4363;SDS011;15337;48.202;12.770;2022-10-22T08:29:32;3.90;;;3.70;;
4363;SDS011;15337;48.202;12.770;2022-10-22T08:31:59;6.70;;;5.43;;
4363;SDS011;15337;48.202;12.770;2022-10-22T08:34:26;9.57;;;4.37;;
4363;SDS011;15337;48.202;12.770;2022-10-22T08:36:54;3.80;;;3.60;;
4363;SDS011;15337;48.202;12.770;2022-10-22T08:39:21;3.03;;;2.83;;
4363;SDS011;15337;48.202;12.770;2022-10-22T08:41:49;5.73;;;3.50;;
4363;SDS011;15337;48.202;12.770;2022-10-22T08:44:32;6.40;;;5.90;;
4363;SDS011;15337;48.202;12.770;2022-10-22T08:47:17;7.93;;;4.37;;
4363;SDS011;15337;48.202;12.770;2022-10-22T08:49:56;6.28;;;5.75;;
4363;SDS011;15337;48.202;12.770;2022-10-22T08:52:25;7.23;;;5.50;;
4363;SDS011;15337;48.202;12.770;2022-10-22T08:54:52;6.07;;;4.27;;
4363;SDS011;15337;48.202;12.770;2022-10-22T08:57:25;4.63;;;3.33;;
4363;SDS011;15337;48.202;12.770;2022-10-22T09:00:11;6.40;;;4.63;;
4363;SDS011;15337;48.202;12.770;2022-10-22T09:02:44;5.00;;;4.50;;
4363;SDS011;15337;48.202;12.770;2022-10-22T09:05:21;6.20;;;2.92;;
4363;SDS011;15337;48.202;12.770;2022-10-22T09:07:58;3.85;;;2.65;;
4363;SDS011;15337;48.202;12.770;2022-10-22T09:10:26;9.30;;;3.40;;
4363;SDS011;15337;48.202;12.770;2022-10-22T09:12:56;4.63;;;3.17;;
4363;SDS011;15337;48.202;12.770;2022-10-22T09:15:25;4.85;;;3.30;;
4363;SDS011;15337;48.202;12.770;2022-10-22T09:18:01;5.20;;;3.80;;
4363;SDS011;15337;48.202;12.770;2022-10-22T09:20:43;3.55;;;2.97;;
4363;SDS011;15337;48.202;12.770;2022-10-22T09:23:23;6.22;;;2.90;;
4363;SDS011;15337;48.202;12.770;2022-10-22T09:25:59;3.70;;;2.88;;
4363;SDS011;15337;48.202;12.770;2022-10-22T09:28:27;2.63;;;2.35;;
4363;SDS011;15337;48.202;12.770;2022-10-22T09:30:55;1.90;;;1.80;;
4363;SDS011;15337;48.202;12.770;2022-10-22T09:33:23;6.57;;;2.22;;
4363;SDS011;15337;48.202;12.770;2022-10-22T09:35:52;5.60;;;3.25;;
4363;SDS011;15337;48.202;12.770;2022-10-22T09:38:20;4.68;;;3.33;;
4363;SDS011;15337;48.202;12.770;2022-10-22T09:40:51;3.13;;;2.92;;
4363;SDS011;15337;48.202;12.770;2022-10-22T09:43:20;3.38;;;3.15;;
4363;SDS011;15337;48.202;12.770;2022-10-22T09:45:48;4.20;;;3.90;;
4363;SDS011;15337;48.202;12.770;2022-10-22T09:48:26;3.72;;;3.45;;
4363;SDS011;15337;48.202;12.770;2022-10-22T09:50:57;3.65;;;3.45;;
4363;SDS011;15337;48.202;12.770;2022-10-22T09:53:28;10.32;;;3.38;;
4363;SDS011;15337;48.202;12.770;2022-10-22T09:55:56;3.20;;;2.88;;
4363;SDS011;15337;48.202;12.770;2022-10-22T09:58:25;3.70;;;3.40;;
4363;SDS011;15337;48.202;12.770;2022-10-22T10:00:54;3.13;;;2.75;;
4363;SDS011;15337;48.202;12.770;2022-10-22T10:03:26;2.58;;;2.47;;
4363;SDS011;15337;48.202;12.770;2022-10-22T10:05:54;2.72;;;2.42;;
4363;SDS011;15337;48.202;12.770;2022-10-22T10:08:23;6.25;;;2.10;;
4363;SDS011;15337;48.202;12.770;2022-10-22T10:10:51;2.28;;;2.05;;
4363;SDS011;15337;48.202;12.770;2022-10-22T10:13:26;2.42;;;2.22;;
4363;SDS011;15337;48.202;12.770;2022-10-22T10:16:03;5.93;;;4.00;;
4363;SDS011;15337;48.202;12.770;2022-10-22T10:18:40;7.50;;;4.68;;
4363;SDS011;15337;48.202;12.770;2022-10-22T10:21:18;4.35;;;4.05;;
4363;SDS011;15337;48.202;12.770;2022-10-22T10:23:53;4.50;;;4.20;;
4363;SDS011;15337;48.202;12.770;2022-10-22T10:26:30;5.97;;;3.78;;
4363;SDS011;15337;48.202;12.770;2022-10-22T10:29:07;5.85;;;4.80;;
4363;SDS011;15337;48.202;12.770;2022-10-22T10:31:51;8.85;;;6.53;;
4363;SDS011;15337;48.202;12.770;2022-10-22T10:34:39;5.00;;;4.60;;
4363;SDS011;15337;48.202;12.770;2022-10-22T10:37:14;4.15;;;3.75;;
4363;SDS011;15337;48.202;12.770;2022-10-22T10:39:53;6.75;;;3.50;;
4363;SDS011;15337;48.202;12.770;2022-10-22T10:42:31;3.88;;;3.58;;
4363;SDS011;15337;48.202;12.770;2022-10-22T10:45:06;6.45;;;2.63;;
4363;SDS011;15337;48.202;12.770;2022-10-22T10:47:48;3.15;;;2.78;;
4363;SDS011;15337;48.202;12.770;2022-10-22T10:50:28;4.63;;;2.88;;
4363;SDS011;15337;48.202;12.770;2022-10-22T10:53:00;4.43;;;3.72;;
4363;SDS011;15337;48.202;12.770;2022-10-22T10:55:36;4.53;;;4.10;;
4363;SDS011;15337;48.202;12.770;2022-10-22T10:58:11;3.70;;;3.40;;
4363;SDS011;15337;48.202;12.770;2022-10-22T11:00:46;3.70;;;3.40;;
4363;SDS011;15337;48.202;12.770;2022-10-22T11:03:31;8.48;;;3.67;;
4363;SDS011;15337;48.202;12.770;2022-10-22T11:06:11;4.18;;;3.40;;
4363;SDS011;15337;48.202;12.770;2022-10-22T11:08:41;5.10;;;4.70;;
4363;SDS011;15337;48.202;12.770;2022-10-22T11:11:15;2.60;;;2.40;;
4363;SDS011;15337;48.202;12.770;2022-10-22T11:13:48;3.38;;;2.33;;
4363;SDS011;15337;48.202;12.770;2022-10-22T11:16:19;10.73;;;2.63;;
4363;SDS011;15337;48.202;12.770;2022-10-22T11:18:52;2.67;;;2.47;;
4363;SDS011;15337;48.202;12.770;2022-10-22T11:21:24;3.03;;;2.13;;
4363;SDS011;15337;48.202;12.770;2022-10-22T11:23:55;3.90;;;2.25;;
4363;SDS011;15337;48.202;12.770;2022-10-22T11:26:33;2.08;;;1.98;;
4363;SDS011;15337;48.202;12.770;2022-10-22T11:29:04;2.65;;;1.90;;
4363;SDS011;15337;48.202;12.770;2022-10-22T11:31:37;2.38;;;2.17;;
4363;SDS011;15337;48.202;12.770;2022-10-22T11:34:09;1.67;;;1.58;;
4363;SDS011;15337;48.202;12.770;2022-10-22T11:36:41;5.20;;;2.58;;
4363;SDS011;15337;48.202;12.770;2022-10-22T11:41:53;4.38;;;2.20;;
4363;SDS011;15337;48.202;12.770;2022-10-22T11:44:22;3.78;;;1.65;;
4363;SDS011;15337;48.202;12.770;2022-10-22T11:46:53;2.13;;;1.67;;
4363;SDS011;15337;48.202;12.770;2022-10-22T11:49:26;2.53;;;1.92;;
4363;SDS011;15337;48.202;12.770;2022-10-22T11:52:20;3.35;;;2.40;;
4363;SDS011;15337;48.202;12.770;2022-10-22T11:54:49;1.88;;;1.75;;
4363;SDS011;15337;48.202;12.770;2022-10-22T11:57:24;2.78;;;1.60;;
4363;SDS011;15337;48.202;12.770;2022-10-22T11:59:55;2.22;;;1.33;;
4363;SDS011;15337;48.202;12.770;2022-10-22T12:08:21;5.00;;;1.80;;
4363;SDS011;15337;48.202;12.770;2022-10-22T12:10:54;4.53;;;1.85;;
4363;SDS011;15337;48.202;12.770;2022-10-22T12:13:32;4.53;;;3.15;;
4363;SDS011;15337;48.202;12.770;2022-10-22T12:16:15;8.63;;;3.97;;
4363;SDS011;15337;48.202;12.770;2022-10-22T12:18:43;2.42;;;2.22;;
4363;SDS011;15337;48.202;12.770;2022-10-22T12:21:11;2.83;;;1.90;;
4363;SDS011;15337;48.202;12.770;2022-10-22T12:23:40;1.80;;;1.70;;
4363;SDS011;15337;48.202;12.770;2022-10-22T12:26:20;7.45;;;1.80;;
4363;SDS011;15337;48.202;12.770;2022-10-22T12:28:48;4.35;;;1.50;;
4363;SDS011;15337;48.202;12.770;2022-10-22T12:31:16;3.17;;;2.60;;
4363;SDS011;15337;48.202;12.770;2022-10-22T12:33:43;2.72;;;1.27;;
4363;SDS011;15337;48.202;12.770;2022-10-22T12:36:14;4.53;;;1.70;;
4363;SDS011;15337;48.202;12.770;2022-10-22T12:38:45;4.03;;;2.13;;
4363;SDS011;15337;48.202;12.770;2022-10-22T12:41:12;4.30;;;1.77;;
4363;SDS011;15337;48.202;12.770;2022-10-22T12:43:39;1.70;;;1.45;;
4363;SDS011;15337;48.202;12.770;2022-10-22T12:46:08;2.10;;;1.80;;
4363;SDS011;15337;48.202;12.770;2022-10-22T12:48:39;1.33;;;1.23;;
4363;SDS011;15337;48.202;12.770;2022-10-22T12:51:07;1.95;;;1.85;;
4363;SDS011;15337;48.202;12.770;2022-10-22T12:53:41;1.50;;;1.40;;
4363;SDS011;15337;48.202;12.770;2022-10-22T12:56:13;1.48;;;1.38;;
4363;SDS011;15337;48.202;12.770;2022-10-22T12:58:44;1.63;;;1.52;;
4363;SDS011;15337;48.202;12.770;2022-10-22T13:01:14;7.07;;;1.95;;
4363;SDS011;15337;48.202;12.770;2022-10-22T13:03:43;1.73;;;1.63;;
4363;SDS011;15337;48.202;12.770;2022-10-22T13:06:20;2.58;;;2.00;;
4363;SDS011;15337;48.202;12.770;2022-10-22T13:09:02;3.45;;;1.77;;
4363;SDS011;15337;48.202;12.770;2022-10-22T13:11:38;2.05;;;1.85;;
4363;SDS011;15337;48.202;12.770;2022-10-22T13:14:14;2.00;;;1.30;;
4363;SDS011;15337;48.202;12.770;2022-10-22T13:19:45;2.30;;;1.50;;
4363;SDS011;15337;48.202;12.770;2022-10-22T13:22:24;3.38;;;1.33;;
4363;SDS011;15337;48.202;12.770;2022-10-22T13:24:58;10.18;;;7.30;;
4363;SDS011;15337;48.202;12.770;2022-10-22T13:27:43;5.85;;;1.60;;
4363;SDS011;15337;48.202;12.770;2022-10-22T13:30:16;1.65;;;1.55;;
4363;SDS011;15337;48.202;12.770;2022-10-22T13:32:48;2.05;;;1.85;;
4363;SDS011;15337;48.202;12.770;2022-10-22T13:35:17;4.07;;;1.55;;
4363;SDS011;15337;48.202;12.770;2022-10-22T13:37:48;9.38;;;2.70;;
4363;SDS011;15337;48.202;12.770;2022-10-22T13:40:15;3.55;;;2.60;;
4363;SDS011;15337;48.202;12.770;2022-10-22T13:42:44;6.43;;;5.78;;
4363;SDS011;15337;48.202;12.770;2022-10-22T13:45:11;1.73;;;1.63;;
4363;SDS011;15337;48.202;12.770;2022-10-22T13:47:38;3.95;;;3.58;;
4363;SDS011;15337;48.202;12.770;2022-10-22T13:50:09;7.13;;;3.83;;
4363;SDS011;15337;48.202;12.770;2022-10-22T13:52:40;4.72;;;2.88;;
4363;SDS011;15337;48.202;12.770;2022-10-22T13:55:13;3.30;;;1.50;;
4363;SDS011;15337;48.202;12.770;2022-10-22T13:57:45;2.30;;;2.10;;
4363;SDS011;15337;48.202;12.770;2022-10-22T14:00:14;1.75;;;1.60;;
4363;SDS011;15337;48.202;12.770;2022-10-22T14:02:42;3.65;;;1.60;;
4363;SDS011;15337;48.202;12.770;2022-10-22T14:05:11;2.05;;;1.85;;
4363;SDS011;15337;48.202;12.770;2022-10-22T14:07:39;2.35;;;1.40;;
4363;SDS011;15337;48.202;12.770;2022-10-22T14:10:12;3.22;;;1.48;;
4363;SDS011;15337;48.202;12.770;2022-10-22T14:12:41;3.10;;;2.63;;
4363;SDS011;15337;48.202;12.770;2022-10-22T14:15:09;3.08;;;1.70;;
4363;SDS011;15337;48.202;12.770;2022-10-22T14:17:38;1.95;;;1.40;;
4363;SDS011;15337;48.202;12.770;2022-10-22T14:20:08;6.18;;;2.38;;
4363;SDS011;15337;48.202;12.770;2022-10-22T14:22:40;1.67;;;1.58;;
4363;SDS011;15337;48.202;12.770;2022-10-22T14:25:08;2.58;;;2.13;;
4363;SDS011;15337;48.202;12.770;2022-10-22T14:27:37;4.18;;;2.20;;
4363;SDS011;15337;48.202;12.770;2022-10-22T14:30:05;6.45;;;2.30;;
4363;SDS011;15337;48.202;12.770;2022-10-22T14:32:34;2.15;;;2.00;;
4363;SDS011;15337;48.202;12.770;2022-10-22T14:35:00;2.17;;;2.05;;
4363;SDS011;15337;48.202;12.770;2022-10-22T14:37:28;2.95;;;2.75;;
4363;SDS011;15337;48.202;12.770;2022-10-22T14:39:55;4.55;;;4.25;;
4363;SDS011;15337;48.202;12.770;2022-10-22T14:42:25;9.07;;;5.68;;
4363;SDS011;15337;48.202;12.770;2022-10-22T14:44:53;12.85;;;7.35;;
4363;SDS011;15337;48.202;12.770;2022-10-22T14:47:20;4.75;;;4.05;;
4363;SDS011;15337;48.202;12.770;2022-10-22T14:49:48;4.20;;;3.67;;
4363;SDS011;15337;48.202;12.770;2022-10-22T14:52:15;5.53;;;4.35;;
4363;SDS011;15337;48.202;12.770;2022-10-22T14:54:42;5.30;;;2.60;;
4363;SDS011;15337;48.202;12.770;2022-10-22T14:57:09;4.70;;;2.53;;
4363;SDS011;15337;48.202;12.770;2022-10-22T14:59:38;5.15;;;3.97;;
4363;SDS011;15337;48.202;12.770;2022-10-22T15:02:07;6.35;;;5.18;;
4363;SDS011;15337;48.202;12.770;2022-10-22T15:04:36;4.53;;;3.35;;
4363;SDS011;15337;48.202;12.770;2022-10-22T15:07:05;3.83;;;3.53;;